Time;durP1;ratioP1;P1;durP2;ratioP2;P2;SDS_P1;SDS_P2;PMS_P1;PMS_P2;Temp;Humidity;BMP_temperature;BMP_pressure;BME280_temperature;BME280_humidity;BME280_pressure;Samples;Min_cycle;Max_cycle;Signal;HPM_P1;HPM_P2
2021/09/07 00:02:21;;;;;;;13.63;9.33;;;17.20;80.90;;;;;;5043461;28;20432;-76
2021/09/07 00:04:47;;;;;;;14.77;8.37;;;17.20;80.90;;;;;;5045751;28;20220;-75
2021/09/07 00:07:13;;;;;;;17.13;9.40;;;17.20;80.60;;;;;;5036153;28;20197;-74
2021/09/07 00:09:38;;;;;;;16.93;9.47;;;17.20;80.80;;;;;;5035317;28;20292;-74
2021/09/07 00:12:05;;;;;;;18.33;11.00;;;17.10;80.80;;;;;;5036092;28;20185;-74
2021/09/07 00:14:31;;;;;;;16.77;10.03;;;17.00;82.20;;;;;;5040490;28;20593;-77
2021/09/07 00:16:56;;;;;;;18.20;10.23;;;16.90;82.10;;;;;;5041320;28;20427;-75
2021/09/07 00:19:22;;;;;;;15.50;9.40;;;16.90;82.40;;;;;;5034064;28;20266;-76
2021/09/07 00:21:48;;;;;;;16.77;9.13;;;16.90;82.70;;;;;;5033629;28;20664;-75
2021/09/07 00:24:18;;;;;;;14.30;9.93;;;16.80;83.00;;;;;;5033137;28;20297;-75
2021/09/07 00:26:44;;;;;;;14.70;9.30;;;16.80;83.10;;;;;;5033693;28;20189;-75
2021/09/07 00:29:09;;;;;;;15.77;8.93;;;16.80;83.10;;;;;;5032220;28;20466;-74
2021/09/07 00:31:35;;;;;;;17.20;10.30;;;16.70;83.30;;;;;;5033517;28;20193;-75
2021/09/07 00:34:01;;;;;;;18.47;10.13;;;16.70;83.30;;;;;;5033130;28;20679;-75
2021/09/07 00:36:26;;;;;;;18.37;9.70;;;16.70;83.30;;;;;;5032269;28;20224;-74
2021/09/07 00:38:52;;;;;;;14.13;9.33;;;16.70;83.40;;;;;;5033498;28;20189;-75
2021/09/07 00:41:18;;;;;;;19.10;9.50;;;16.60;83.70;;;;;;5033749;28;20243;-75
2021/09/07 00:43:43;;;;;;;20.10;10.37;;;16.60;83.70;;;;;;5031929;28;20267;-76
2021/09/07 00:46:09;;;;;;;18.20;10.50;;;16.70;84.30;;;;;;5033488;28;20213;-76
2021/09/07 00:48:36;;;;;;;22.53;11.13;;;16.70;84.40;;;;;;5033322;28;20295;-76
2021/09/07 00:51:02;;;;;;;19.37;10.17;;;16.70;84.40;;;;;;5033188;28;20199;-75
2021/09/07 00:53:28;;;;;;;18.10;11.00;;;16.60;84.60;;;;;;5028546;28;20858;-73
2021/09/07 00:55:57;;;;;;;17.40;10.97;;;16.50;84.70;;;;;;5032535;28;20215;-75
2021/09/07 00:58:28;;;;;;;16.67;10.20;;;16.40;84.70;;;;;;5025319;28;20186;-74
2021/09/07 01:00:54;;;;;;;14.77;9.47;;;16.30;85.00;;;;;;5032207;28;20943;-74
2021/09/07 01:03:20;;;;;;;16.30;10.30;;;16.30;85.30;;;;;;5033142;28;20458;-74
2021/09/07 01:05:47;;;;;;;17.67;10.27;;;16.30;85.60;;;;;;5033610;28;20246;-74
2021/09/07 01:08:14;;;;;;;17.80;11.00;;;16.40;85.60;;;;;;5034233;28;20271;-75
2021/09/07 01:10:40;;;;;;;20.20;10.97;;;16.40;85.90;;;;;;5033495;28;20473;-74
2021/09/07 01:13:06;;;;;;;17.83;9.80;;;16.30;86.00;;;;;;5034639;28;20430;-74
2021/09/07 01:15:32;;;;;;;16.57;8.63;;;16.30;85.90;;;;;;5034974;28;20439;-74
2021/09/07 01:17:57;;;;;;;18.00;9.67;;;16.30;85.60;;;;;;5033298;28;20201;-76
2021/09/07 01:20:23;;;;;;;16.53;9.97;;;16.30;85.50;;;;;;5032913;28;20443;-77
2021/09/07 01:22:49;;;;;;;15.83;10.17;;;16.20;85.50;;;;;;5034099;28;20184;-77
2021/09/07 01:25:17;;;;;;;21.20;10.40;;;16.20;85.60;;;;;;5032672;28;20290;-77
2021/09/07 01:27:43;;;;;;;21.07;11.03;;;16.10;85.70;;;;;;5033545;28;20618;-75
2021/09/07 01:30:10;;;;;;;17.93;10.93;;;16.10;86.00;;;;;;5033710;28;20459;-77
2021/09/07 01:32:36;;;;;;;16.03;10.20;;;16.10;85.90;;;;;;5032922;28;20427;-77
2021/09/07 01:35:02;;;;;;;14.07;9.57;;;16.10;86.00;;;;;;5032813;28;20446;-76
2021/09/07 01:37:28;;;;;;;15.20;10.40;;;16.10;85.90;;;;;;5032985;28;20983;-77
2021/09/07 01:39:54;;;;;;;19.37;11.37;;;16.10;86.20;;;;;;5032838;28;20420;-76
2021/09/07 01:42:24;;;;;;;16.60;10.07;;;16.00;86.30;;;;;;5031234;28;20215;-76
2021/09/07 01:44:50;;;;;;;19.53;11.40;;;15.90;86.80;;;;;;5028073;28;20486;-76
2021/09/07 01:47:15;;;;;;;16.80;10.03;;;15.90;86.90;;;;;;5030980;28;20422;-76
2021/09/07 01:49:41;;;;;;;17.77;10.63;;;15.90;87.30;;;;;;5032791;28;20709;-77
2021/09/07 01:52:25;;;;;;;25.40;11.43;;;15.90;87.30;;;;;;5032604;28;20257;-75
2021/09/07 01:54:50;;;;;;;20.53;11.90;;;15.90;87.70;;;;;;5027050;28;20207;-75
2021/09/07 01:57:17;;;;;;;19.40;11.90;;;15.80;87.70;;;;;;5032032;28;20952;-75
2021/09/07 01:59:43;;;;;;;20.10;11.60;;;15.80;87.80;;;;;;5032054;28;20180;-76
2021/09/07 02:02:09;;;;;;;17.33;10.17;;;15.70;88.00;;;;;;5031282;28;20420;-75
2021/09/07 02:04:35;;;;;;;19.60;11.20;;;15.70;88.60;;;;;;5031824;28;20445;-76
2021/09/07 02:07:00;;;;;;;17.40;10.93;;;15.70;88.60;;;;;;5031429;28;20511;-76
2021/09/07 02:09:26;;;;;;;22.07;11.30;;;15.60;88.40;;;;;;5031719;28;20197;-76
2021/09/07 02:11:53;;;;;;;15.00;10.60;;;15.60;88.40;;;;;;5031772;28;20609;-75
2021/09/07 02:14:18;;;;;;;15.87;9.67;;;15.60;88.10;;;;;;5031016;28;20932;-76
2021/09/07 02:16:44;;;;;;;17.70;10.63;;;15.60;88.10;;;;;;5031548;28;20485;-75
2021/09/07 02:19:10;;;;;;;18.33;11.10;;;15.60;88.00;;;;;;5031638;28;20188;-75
2021/09/07 02:21:35;;;;;;;20.40;11.40;;;15.50;88.10;;;;;;5038844;28;20212;-76
2021/09/07 02:24:01;;;;;;;19.60;10.63;;;15.50;88.10;;;;;;5031429;28;20207;-75
2021/09/07 02:26:27;;;;;;;22.57;11.83;;;15.60;88.30;;;;;;5030724;28;20283;-75
2021/09/07 02:28:53;;;;;;;23.43;12.73;;;15.50;88.30;;;;;;5030906;28;20292;-74
2021/09/07 02:31:18;;;;;;;20.40;12.00;;;15.50;88.30;;;;;;5031249;28;20715;-74
2021/09/07 02:33:44;;;;;;;18.33;10.50;;;15.40;88.40;;;;;;5031341;28;20201;-74
2021/09/07 02:36:10;;;;;;;21.73;11.83;;;15.30;89.50;;;;;;5031557;28;20671;-74
2021/09/07 02:38:35;;;;;;;18.10;11.13;;;15.30;89.30;;;;;;5031933;28;20196;-75
2021/09/07 02:41:01;;;;;;;18.80;11.90;;;15.20;89.60;;;;;;5031172;28;20186;-74
2021/09/07 02:43:27;;;;;;;17.83;11.77;;;15.30;89.50;;;;;;5029089;28;20186;-75
2021/09/07 02:45:54;;;;;;;21.97;11.57;;;15.30;89.60;;;;;;5030023;28;20219;-74
2021/09/07 02:48:20;;;;;;;19.57;11.60;;;15.20;89.50;;;;;;5029763;28;20449;-75
2021/09/07 02:50:47;;;;;;;19.50;11.13;;;15.20;89.60;;;;;;5031300;28;20493;-75
2021/09/07 02:53:12;;;;;;;21.60;11.83;;;15.20;89.90;;;;;;5031298;28;20431;-74
2021/09/07 02:55:38;;;;;;;17.50;10.73;;;15.20;90.20;;;;;;5030931;28;20497;-74
2021/09/07 02:58:04;;;;;;;19.73;11.93;;;15.20;90.30;;;;;;5029304;28;20210;-75
2021/09/07 03:00:31;;;;;;;18.13;11.40;;;15.20;90.10;;;;;;5030689;28;20635;-74
2021/09/07 03:02:57;;;;;;;18.17;11.03;;;15.20;89.90;;;;;;5029416;28;20513;-75
2021/09/07 03:05:22;;;;;;;23.80;11.17;;;15.20;90.00;;;;;;5029063;28;20548;-75
2021/09/07 03:07:48;;;;;;;17.03;10.60;;;15.20;89.90;;;;;;5031180;28;20521;-76
2021/09/07 03:10:14;;;;;;;18.13;10.60;;;15.10;90.00;;;;;;5030999;28;20221;-75
2021/09/07 03:12:41;;;;;;;19.07;11.80;;;15.10;90.10;;;;;;5030534;28;20187;-74
2021/09/07 03:15:07;;;;;;;17.67;10.87;;;15.00;90.20;;;;;;5025341;28;20212;-75
2021/09/07 03:17:33;;;;;;;19.70;11.17;;;15.00;90.30;;;;;;5023152;28;20430;-74
2021/09/07 03:19:59;;;;;;;20.17;11.23;;;14.90;90.30;;;;;;5033594;28;20433;-74
2021/09/07 03:22:24;;;;;;;24.60;11.47;;;15.00;90.40;;;;;;5034464;28;20580;-75
2021/09/07 03:24:50;;;;;;;21.50;11.73;;;14.90;90.30;;;;;;5034686;28;20246;-76
2021/09/07 03:27:16;;;;;;;17.23;10.70;;;14.90;90.30;;;;;;5034577;28;20283;-74
2021/09/07 03:29:42;;;;;;;21.23;12.10;;;14.90;90.40;;;;;;5034829;28;20215;-76
2021/09/07 03:32:08;;;;;;;21.67;11.80;;;15.00;90.40;;;;;;5033330;28;20187;-75
2021/09/07 03:34:34;;;;;;;18.67;11.17;;;15.00;90.30;;;;;;5035276;28;20219;-77
2021/09/07 03:36:59;;;;;;;22.50;12.47;;;15.00;90.10;;;;;;5035098;28;20457;-75
2021/09/07 03:39:25;;;;;;;20.13;11.53;;;15.00;89.90;;;;;;5035061;28;20205;-74
2021/09/07 03:41:51;;;;;;;17.87;10.80;;;14.90;90.20;;;;;;5034831;28;20189;-74
2021/09/07 03:44:16;;;;;;;17.43;11.10;;;14.90;90.20;;;;;;5034663;28;20317;-76
2021/09/07 03:46:42;;;;;;;21.87;12.00;;;14.90;90.30;;;;;;5034766;28;20189;-75
2021/09/07 03:49:08;;;;;;;17.67;11.00;;;14.70;90.50;;;;;;5035236;28;20217;-75
2021/09/07 03:51:34;;;;;;;17.73;11.40;;;14.60;91.00;;;;;;5027696;28;20190;-75
2021/09/07 03:53:59;;;;;;;21.23;11.70;;;14.50;91.20;;;;;;5034260;28;20547;-74
2021/09/07 03:56:27;;;;;;;20.23;10.90;;;14.40;91.60;;;;;;5035045;28;20213;-75
2021/09/07 03:58:52;;;;;;;21.43;12.10;;;14.50;91.70;;;;;;5034994;28;20255;-76
2021/09/07 04:01:18;;;;;;;21.03;12.17;;;14.50;91.70;;;;;;5036426;28;20428;-76
2021/09/07 04:03:44;;;;;;;20.97;12.00;;;14.60;91.60;;;;;;5041156;28;20238;-74
2021/09/07 04:06:09;;;;;;;18.40;11.07;;;14.50;91.40;;;;;;5039944;28;20194;-75
2021/09/07 04:08:35;;;;;;;19.10;11.80;;;14.50;91.60;;;;;;5039110;28;20189;-74
2021/09/07 04:11:01;;;;;;;19.77;12.33;;;14.60;91.40;;;;;;5032512;28;20263;-75
2021/09/07 04:13:27;;;;;;;21.67;11.57;;;14.50;91.20;;;;;;5036860;28;20211;-75
2021/09/07 04:15:52;;;;;;;20.23;11.90;;;14.50;91.40;;;;;;5023350;28;20598;-76
2021/09/07 04:18:18;;;;;;;22.67;11.40;;;14.60;91.60;;;;;;5034119;28;20189;-75
2021/09/07 04:20:44;;;;;;;18.70;11.30;;;14.60;91.50;;;;;;5031043;28;20186;-75
2021/09/07 04:23:09;;;;;;;21.03;11.10;;;14.70;91.50;;;;;;5038422;28;20633;-75
2021/09/07 04:25:37;;;;;;;20.53;11.90;;;14.70;91.30;;;;;;5047082;28;20205;-75
2021/09/07 04:28:03;;;;;;;21.63;12.27;;;14.70;91.30;;;;;;5040618;28;20185;-76
2021/09/07 04:30:29;;;;;;;25.70;12.57;;;14.70;91.20;;;;;;5034043;28;20492;-74
2021/09/07 04:32:55;;;;;;;23.37;12.50;;;14.70;91.20;;;;;;5034515;28;20458;-76
2021/09/07 04:35:21;;;;;;;24.73;11.73;;;14.70;91.30;;;;;;5033408;28;20214;-76
2021/09/07 04:37:47;;;;;;;20.73;11.30;;;14.80;91.20;;;;;;5033533;28;20472;-77
2021/09/07 04:40:13;;;;;;;23.33;13.10;;;14.80;91.30;;;;;;5028567;28;20194;-77
2021/09/07 04:42:39;;;;;;;19.27;11.60;;;14.80;91.30;;;;;;5033463;28;20491;-75
2021/09/07 04:45:06;;;;;;;22.00;12.67;;;14.80;91.30;;;;;;5030492;28;20507;-77
2021/09/07 04:47:32;;;;;;;19.07;11.73;;;14.80;91.30;;;;;;5034092;28;20795;-76
2021/09/07 04:49:58;;;;;;;21.07;12.27;;;14.80;91.30;;;;;;5033526;28;20517;-76
2021/09/07 04:52:23;;;;;;;22.30;13.20;;;14.80;91.30;;;;;;5030069;28;20185;-76
2021/09/07 04:54:49;;;;;;;23.13;11.97;;;14.80;91.30;;;;;;5028575;28;20210;-77
2021/09/07 04:57:15;;;;;;;24.27;13.53;;;14.80;91.30;;;;;;5034126;28;20190;-77
2021/09/07 04:59:40;;;;;;;21.00;12.17;;;14.80;91.10;;;;;;5026285;28;20191;-76
2021/09/07 05:02:06;;;;;;;20.50;12.00;;;14.80;91.30;;;;;;5028916;28;20648;-76
2021/09/07 05:04:32;;;;;;;19.23;11.13;;;14.90;91.30;;;;;;5022756;28;20233;-77
2021/09/07 05:06:58;;;;;;;18.60;11.37;;;14.90;91.30;;;;;;5026977;28;20332;-77
2021/09/07 05:09:23;;;;;;;19.93;12.50;;;15.00;91.20;;;;;;5032719;28;20225;-77
2021/09/07 05:11:49;;;;;;;25.70;12.33;;;15.00;91.10;;;;;;5031192;28;20179;-77
2021/09/07 05:14:15;;;;;;;21.73;13.27;;;15.00;90.90;;;;;;5025606;28;20204;-77
2021/09/07 05:16:41;;;;;;;21.07;12.77;;;15.00;90.70;;;;;;5033837;28;20258;-77
2021/09/07 05:19:09;;;;;;;26.73;12.97;;;15.10;90.00;;;;;;5031573;28;20252;-76
2021/09/07 05:21:35;;;;;;;19.40;11.77;;;15.10;90.00;;;;;;5031775;28;20193;-75
2021/09/07 05:24:01;;;;;;;28.03;13.47;;;15.10;89.90;;;;;;5032667;28;20866;-77
2021/09/07 05:26:27;;;;;;;23.73;12.90;;;15.20;88.90;;;;;;5034194;28;20419;-79
2021/09/07 05:28:52;;;;;;;28.67;14.20;;;15.10;88.90;;;;;;5033336;28;20185;-77
2021/09/07 05:31:18;;;;;;;22.90;12.33;;;15.10;88.90;;;;;;5032723;28;20471;-77
2021/09/07 05:33:45;;;;;;;24.17;12.70;;;15.10;88.40;;;;;;5030530;28;20254;-76
2021/09/07 05:36:10;;;;;;;22.57;13.03;;;15.10;88.70;;;;;;5031780;28;20237;-77
2021/09/07 05:38:36;;;;;;;25.67;13.67;;;15.00;88.70;;;;;;5032940;28;20455;-77
2021/09/07 05:41:02;;;;;;;21.57;12.37;;;15.00;89.20;;;;;;5031991;28;20183;-76
2021/09/07 05:43:27;;;;;;;23.83;13.33;;;14.90;89.30;;;;;;5033185;28;20178;-77
2021/09/07 05:45:53;;;;;;;26.00;12.57;;;14.90;89.60;;;;;;5034542;28;20677;-78
2021/09/07 05:48:19;;;;;;;23.53;13.03;;;14.90;89.90;;;;;;5030969;28;20292;-76
2021/09/07 05:50:44;;;;;;;22.30;13.60;;;15.00;90.00;;;;;;5031470;28;20237;-74
2021/09/07 05:53:10;;;;;;;26.67;13.23;;;15.00;90.00;;;;;;5030805;28;20634;-76
2021/09/07 05:55:36;;;;;;;27.10;13.50;;;15.00;90.00;;;;;;5030198;28;20206;-76
2021/09/07 05:58:02;;;;;;;25.97;13.33;;;15.00;89.70;;;;;;5031672;28;20185;-77
2021/09/07 06:00:29;;;;;;;29.27;13.27;;;15.00;89.90;;;;;;5031228;28;20184;-77
2021/09/07 06:02:57;;;;;;;24.53;13.40;;;15.10;89.90;;;;;;5031700;28;20424;-77
2021/09/07 06:05:23;;;;;;;26.40;13.80;;;15.30;88.90;;;;;;5031262;28;21026;-79
2021/09/07 06:07:49;;;;;;;27.73;13.60;;;15.40;88.00;;;;;;5030460;28;20507;-77
2021/09/07 06:10:15;;;;;;;24.50;13.40;;;15.40;88.10;;;;;;5031648;28;20923;-77
2021/09/07 06:12:41;;;;;;;27.93;14.77;;;15.50;88.40;;;;;;5029489;28;20192;-76
2021/09/07 06:15:08;;;;;;;24.73;13.90;;;15.60;88.00;;;;;;5030545;28;20699;-75
2021/09/07 06:17:34;;;;;;;26.10;13.93;;;15.60;87.60;;;;;;5032141;28;21079;-76
2021/09/07 06:19:59;;;;;;;27.60;13.90;;;15.70;87.30;;;;;;5030693;28;20478;-76
2021/09/07 06:22:25;;;;;;;26.60;12.83;;;15.90;86.90;;;;;;5030945;28;20276;-75
2021/09/07 06:24:52;;;;;;;22.60;13.30;;;15.90;86.80;;;;;;5032048;28;20205;-75
2021/09/07 06:27:19;;;;;;;26.30;14.37;;;15.80;86.90;;;;;;5039162;28;20192;-76
2021/09/07 06:29:45;;;;;;;24.20;14.00;;;15.80;87.30;;;;;;5036697;28;20465;-75
2021/09/07 06:32:13;;;;;;;31.87;15.10;;;15.90;86.80;;;;;;5031866;28;20519;-75
2021/09/07 06:34:39;;;;;;;26.97;14.00;;;16.00;86.20;;;;;;5031796;28;20435;-75
2021/09/07 06:37:05;;;;;;;23.80;14.17;;;16.00;86.20;;;;;;5030174;28;20447;-76
2021/09/07 06:39:31;;;;;;;24.63;14.93;;;16.10;85.50;;;;;;5031693;28;20426;-76
2021/09/07 06:41:57;;;;;;;27.53;14.60;;;16.10;85.30;;;;;;5030160;28;20840;-75
2021/09/07 06:44:23;;;;;;;24.10;13.87;;;16.10;85.00;;;;;;5031194;28;20435;-75
2021/09/07 06:46:48;;;;;;;27.93;12.80;;;16.20;85.00;;;;;;5031603;28;20188;-76
2021/09/07 06:49:14;;;;;;;25.60;14.47;;;16.20;85.30;;;;;;5031624;28;20218;-76
2021/09/07 06:51:40;;;;;;;20.90;13.60;;;16.20;85.20;;;;;;5032130;28;20491;-74
2021/09/07 06:54:06;;;;;;;24.40;13.90;;;16.10;85.50;;;;;;5030634;28;20273;-76
2021/09/07 06:56:32;;;;;;;26.10;14.17;;;16.10;85.60;;;;;;5031566;28;20192;-75
2021/09/07 06:58:57;;;;;;;24.93;14.13;;;16.20;85.70;;;;;;5031724;28;20276;-75
2021/09/07 07:01:23;;;;;;;32.97;15.50;;;16.20;85.20;;;;;;5031425;28;20519;-76
2021/09/07 07:03:49;;;;;;;29.87;15.97;;;16.30;84.70;;;;;;5031517;28;20228;-76
2021/09/07 07:06:14;;;;;;;23.20;14.07;;;16.30;84.70;;;;;;5030248;28;20296;-75
2021/09/07 07:08:40;;;;;;;25.00;13.70;;;16.40;85.50;;;;;;5032585;28;20184;-76
2021/09/07 07:11:06;;;;;;;22.20;13.70;;;16.60;85.20;;;;;;5032848;28;20726;-75
2021/09/07 07:13:32;;;;;;;24.57;13.60;;;16.80;84.70;;;;;;5029046;28;20184;-76
2021/09/07 07:15:57;;;;;;;26.67;13.53;;;17.00;83.60;;;;;;5032295;28;20416;-75
2021/09/07 07:18:23;;;;;;;21.73;13.73;;;17.30;82.50;;;;;;5032226;28;20561;-76
2021/09/07 07:20:49;;;;;;;24.70;13.57;;;17.60;80.80;;;;;;5032595;28;20185;-76
2021/09/07 07:23:14;;;;;;;22.33;13.90;;;17.80;80.20;;;;;;5031923;28;20532;-77
2021/09/07 07:25:40;;;;;;;24.43;14.50;;;18.00;78.90;;;;;;5038316;28;20269;-75
2021/09/07 07:28:06;;;;;;;23.23;14.50;;;18.10;78.00;;;;;;5030766;28;20620;-76
2021/09/07 07:30:32;;;;;;;26.57;15.77;;;18.30;77.40;;;;;;5021297;28;20212;-75
2021/09/07 07:32:58;;;;;;;23.53;14.00;;;18.40;76.40;;;;;;5031956;28;20422;-75
2021/09/07 07:35:25;;;;;;;23.87;14.73;;;18.40;76.40;;;;;;5031266;28;20206;-76
2021/09/07 07:37:51;;;;;;;24.67;13.93;;;18.50;76.40;;;;;;5031962;28;20745;-75
2021/09/07 07:40:17;;;;;;;25.07;14.40;;;18.60;76.10;;;;;;5031852;28;20425;-77
2021/09/07 07:42:43;;;;;;;25.23;13.53;;;18.70;75.50;;;;;;5031532;28;20671;-76
2021/09/07 07:45:09;;;;;;;20.93;12.43;;;18.80;75.20;;;;;;5032023;28;20461;-77
2021/09/07 07:47:35;;;;;;;35.13;14.57;;;18.90;75.50;;;;;;5030772;28;20434;-79
2021/09/07 07:50:01;;;;;;;28.57;15.67;;;18.90;75.50;;;;;;5030530;28;20893;-77
2021/09/07 07:52:27;;;;;;;26.13;14.63;;;18.90;76.10;;;;;;5029764;28;20180;-78
2021/09/07 07:54:52;;;;;;;32.00;15.47;;;18.80;76.50;;;;;;5030536;28;20203;-78
2021/09/07 07:57:18;;;;;;;25.50;14.33;;;18.80;76.40;;;;;;5030830;28;20193;-77
2021/09/07 07:59:45;;;;;;;30.30;15.30;;;18.70;77.00;;;;;;5031010;28;20622;-78
2021/09/07 08:02:11;;;;;;;23.73;14.33;;;18.70;76.80;;;;;;5031223;28;20190;-79
2021/09/07 08:04:37;;;;;;;26.00;14.97;;;18.70;76.80;;;;;;5034342;28;20488;-80
2021/09/07 08:07:02;;;;;;;21.87;13.73;;;18.80;77.00;;;;;;5032113;28;20185;-77
2021/09/07 08:09:31;;;;;;;20.80;13.43;;;19.00;76.80;;;;;;5036217;28;20205;-78
2021/09/07 08:11:58;;;;;;;30.07;13.50;;;19.10;76.70;;;;;;5033574;28;20185;-80
2021/09/07 08:14:23;;;;;;;23.40;13.40;;;19.40;76.40;;;;;;5033978;28;20454;-77
2021/09/07 08:16:49;;;;;;;22.17;13.30;;;19.50;75.40;;;;;;5034884;28;20425;-78
2021/09/07 08:19:15;;;;;;;25.03;12.60;;;19.80;74.50;;;;;;5034271;28;20182;-77
2021/09/07 08:21:41;;;;;;;29.53;14.13;;;19.80;73.90;;;;;;5031174;28;20236;-76
2021/09/07 08:24:06;;;;;;;29.20;15.00;;;19.90;73.00;;;;;;5034284;28;20224;-77
2021/09/07 08:26:32;;;;;;;25.10;14.33;;;19.90;72.90;;;;;;5034458;28;20606;-78
2021/09/07 08:28:58;;;;;;;24.07;13.63;;;19.80;73.50;;;;;;5032372;28;20275;-78
2021/09/07 08:31:23;;;;;;;22.83;14.00;;;19.90;73.60;;;;;;5034306;28;20189;-75
2021/09/07 08:33:49;;;;;;;24.20;13.53;;;20.00;73.60;;;;;;5034129;28;20688;-78
2021/09/07 08:36:15;;;;;;;22.93;13.20;;;20.00;73.90;;;;;;5035065;28;20650;-76
2021/09/07 08:38:41;;;;;;;21.13;14.13;;;20.10;73.70;;;;;;5034053;28;20688;-77
2021/09/07 08:41:06;;;;;;;24.60;13.07;;;20.20;73.30;;;;;;5034648;28;20186;-80
2021/09/07 08:43:32;;;;;;;24.00;12.90;;;20.30;73.50;;;;;;5033321;28;20189;-77
2021/09/07 08:45:58;;;;;;;22.47;13.07;;;20.30;73.20;;;;;;5034200;28;20207;-77
2021/09/07 08:48:25;;;;;;;24.13;12.73;;;20.30;73.20;;;;;;5029989;28;20922;-76
2021/09/07 08:50:54;;;;;;;21.63;12.67;;;20.40;73.20;;;;;;5034512;28;20527;-77
2021/09/07 08:53:20;;;;;;;23.70;12.50;;;20.40;72.60;;;;;;5033446;28;20482;-77
2021/09/07 08:55:46;;;;;;;21.40;13.50;;;20.60;72.30;;;;;;5032658;28;20457;-78
2021/09/07 08:58:12;;;;;;;22.47;12.87;;;20.70;71.80;;;;;;5033023;28;20907;-78
2021/09/07 09:00:38;;;;;;;25.67;13.10;;;20.80;71.80;;;;;;5032822;28;20240;-78
2021/09/07 09:03:12;;;;;;;23.37;12.20;;;20.90;71.70;;;;;;5034453;28;20189;-76
2021/09/07 09:05:46;;;;;;;18.70;11.90;;;21.10;71.60;;;;;;5030057;28;20210;-77
2021/09/07 09:08:13;;;;;;;25.13;13.30;;;21.20;71.30;;;;;;5032275;28;20431;-79
2021/09/07 09:10:40;;;;;;;23.83;13.00;;;21.30;70.70;;;;;;5033808;28;20473;-78
2021/09/07 09:13:11;;;;;;;19.70;12.60;;;21.40;69.80;;;;;;5033871;28;20426;-76
2021/09/07 09:15:37;;;;;;;24.80;14.10;;;21.40;69.80;;;;;;5035113;28;20450;-79
2021/09/07 09:18:05;;;;;;;22.50;13.40;;;21.50;69.50;;;;;;5033892;28;20839;-77
2021/09/07 09:20:31;;;;;;;26.57;13.87;;;21.50;69.10;;;;;;5031497;28;20422;-77
2021/09/07 09:22:58;;;;;;;22.77;12.20;;;21.70;68.80;;;;;;5032579;28;20441;-78
2021/09/07 09:25:25;;;;;;;18.83;11.57;;;21.90;68.60;;;;;;5031559;28;20212;-78
2021/09/07 09:28:20;;;;;;;21.23;13.13;;;22.00;68.30;;;;;;5031828;28;20460;-79
2021/09/07 09:30:51;;;;;;;24.33;12.70;;;22.00;67.00;;;;;;5024923;28;20468;-77
2021/09/07 09:33:26;;;;;;;20.43;11.70;;;22.10;67.90;;;;;;5031263;28;20420;-78
2021/09/07 09:35:53;;;;;;;17.50;11.63;;;22.20;66.90;;;;;;5033047;28;20430;-77
2021/09/07 09:38:21;;;;;;;19.07;11.07;;;22.20;66.70;;;;;;5033403;28;20419;-78
2021/09/07 09:40:58;;;;;;;19.33;12.50;;;22.30;66.00;;;;;;5035449;28;20426;-81
2021/09/07 09:43:45;;;;;;;22.93;11.60;;;22.30;66.30;;;;;;5033013;28;20813;-76
2021/09/07 09:46:25;;;;;;;18.40;11.27;;;22.40;65.80;;;;;;5032747;28;20455;-75
2021/09/07 09:48:52;;;;;;;20.87;12.17;;;22.40;66.00;;;;;;5033463;28;20423;-74
2021/09/07 09:51:20;;;;;;;21.50;12.47;;;22.60;65.00;;;;;;5030742;28;20477;-75
2021/09/07 09:53:49;;;;;;;21.77;12.80;;;22.50;65.10;;;;;;5030905;28;20451;-75
2021/09/07 09:56:15;;;;;;;21.37;11.50;;;22.60;65.30;;;;;;5034644;28;20448;-76
2021/09/07 09:58:42;;;;;;;20.70;12.37;;;22.70;64.80;;;;;;5033070;28;20478;-77
2021/09/07 10:01:08;;;;;;;20.00;11.97;;;22.60;64.10;;;;;;5032378;28;20927;-75
2021/09/07 10:03:37;;;;;;;19.83;12.03;;;22.50;64.40;;;;;;5031042;28;20428;-75
2021/09/07 10:06:03;;;;;;;22.10;12.30;;;22.70;64.20;;;;;;5032474;28;20438;-75
2021/09/07 10:08:29;;;;;;;19.03;12.13;;;22.80;63.90;;;;;;5032158;28;20448;-76
2021/09/07 10:11:00;;;;;;;17.13;11.40;;;22.90;63.50;;;;;;5032321;28;20856;-76
2021/09/07 10:13:29;;;;;;;22.07;10.43;;;22.80;63.50;;;;;;5030319;28;20264;-76
2021/09/07 10:16:01;;;;;;;19.77;10.70;;;22.90;62.50;;;;;;5026069;28;20460;-76
2021/09/07 10:18:35;;;;;;;19.40;10.57;;;23.00;62.00;;;;;;5031796;28;20860;-78
2021/09/07 10:21:16;;;;;;;14.80;9.87;;;23.20;58.90;;;;;;5031520;28;20429;-78
2021/09/07 10:26:37;;;;;;;17.30;10.13;;;23.40;58.20;;;;;;5031785;28;20420;-74
2021/09/07 10:29:10;;;;;;;14.27;9.50;;;23.60;57.80;;;;;;5020656;28;20834;-76
2021/09/07 10:31:49;;;;;;;15.03;9.13;;;23.80;57.20;;;;;;5030144;28;20484;-75
2021/09/07 10:34:19;;;;;;;15.00;9.63;;;24.00;55.70;;;;;;5031188;28;20445;-76
2021/09/07 10:37:07;;;;;;;20.83;9.40;;;24.00;54.90;;;;;;5027871;28;20537;-74
2021/09/07 10:39:41;;;;;;;13.43;9.00;;;24.00;54.90;;;;;;5023389;28;20432;-76
2021/09/07 10:42:12;;;;;;;13.03;8.50;;;24.10;54.40;;;;;;5028449;28;20447;-75
2021/09/07 10:44:58;;;;;;;13.37;8.50;;;24.30;53.70;;;;;;5031278;28;20451;-75
2021/09/07 10:47:40;;;;;;;15.03;9.53;;;24.70;52.90;;;;;;5031404;28;20486;-76
2021/09/07 10:50:06;;;;;;;13.90;8.47;;;25.30;51.40;;;;;;5026612;28;20501;-75
2021/09/07 10:52:34;;;;;;;30.07;18.50;;;25.70;51.40;;;;;;5031013;28;20430;-76
2021/09/07 10:55:12;;;;;;;16.47;9.20;;;26.10;48.60;;;;;;5030781;28;20204;-75
2021/09/07 10:57:39;;;;;;;11.97;7.87;;;26.50;47.50;;;;;;5027800;28;20427;-76
2021/09/07 11:00:14;;;;;;;13.37;7.93;;;26.80;46.50;;;;;;5030064;28;20672;-75
2021/09/07 11:02:41;;;;;;;12.40;8.33;;;27.20;45.80;;;;;;5026336;28;20434;-76
2021/09/07 11:05:28;;;;;;;12.30;8.33;;;27.40;44.90;;;;;;5024753;28;20467;-75
2021/09/07 11:08:04;;;;;;;14.50;8.80;;;27.60;44.20;;;;;;5025519;28;20432;-74
2021/09/07 11:10:43;;;;;;;14.20;9.60;;;27.60;43.20;;;;;;5031467;28;20485;-75
2021/09/07 11:13:30;;;;;;;13.30;8.40;;;27.60;43.20;;;;;;5030319;28;20421;-75
2021/09/07 11:16:02;;;;;;;11.07;7.90;;;27.80;44.10;;;;;;5027117;28;20420;-76
2021/09/07 11:18:32;;;;;;;16.13;8.73;;;27.90;44.10;;;;;;5030741;28;20416;-75
2021/09/07 11:21:07;;;;;;;11.03;8.00;;;28.10;42.60;;;;;;5029471;28;20420;-76
2021/09/07 11:23:35;;;;;;;11.30;7.83;;;28.50;42.60;;;;;;5029092;28;20423;-75
2021/09/07 11:26:16;;;;;;;13.93;8.27;;;28.60;41.50;;;;;;5031589;28;20769;-75
2021/09/07 11:28:47;;;;;;;15.77;8.93;;;28.40;42.00;;;;;;5032523;28;20427;-75
2021/09/07 11:31:13;;;;;;;13.40;8.40;;;28.30;42.20;;;;;;5036084;28;20502;-76
2021/09/07 11:33:41;;;;;;;15.60;8.80;;;28.30;42.70;;;;;;5033172;28;20970;-75
2021/09/07 11:36:07;;;;;;;12.90;8.47;;;28.20;42.20;;;;;;5033152;28;20864;-73
2021/09/07 11:38:48;;;;;;;12.40;8.07;;;28.40;42.40;;;;;;5031842;28;20510;-75
2021/09/07 11:41:16;;;;;;;12.70;7.70;;;28.70;40.20;;;;;;5035008;28;20766;-76
2021/09/07 11:43:44;;;;;;;11.67;7.90;;;28.80;40.30;;;;;;5035197;28;20447;-76
2021/09/07 11:46:20;;;;;;;11.53;7.30;;;28.90;39.80;;;;;;5035184;28;20455;-75
2021/09/07 11:48:49;;;;;;;11.10;7.83;;;29.00;37.80;;;;;;5035464;28;20513;-75
2021/09/07 11:51:18;;;;;;;9.47;6.90;;;29.20;38.00;;;;;;5035067;28;20570;-75
2021/09/07 11:53:45;;;;;;;15.87;8.13;;;29.10;36.60;;;;;;5034482;28;20450;-77
2021/09/07 11:56:26;;;;;;;11.90;8.17;;;29.10;37.60;;;;;;5033752;28;20434;-76
2021/09/07 11:58:52;;;;;;;11.83;8.00;;;29.30;38.40;;;;;;5035073;28;20506;-76
2021/09/07 12:01:26;;;;;;;11.60;8.20;;;29.20;38.60;;;;;;5034553;28;20938;-77
2021/09/07 12:03:57;;;;;;;11.23;7.77;;;28.80;40.00;;;;;;5034133;28;20447;-77
2021/09/07 12:06:32;;;;;;;12.90;8.10;;;29.00;39.90;;;;;;5033455;28;21214;-77
2021/09/07 12:09:10;;;;;;;10.67;7.80;;;29.30;37.80;;;;;;5034299;28;20423;-78
2021/09/07 12:11:36;;;;;;;13.10;8.07;;;29.40;37.20;;;;;;5033791;28;20415;-75
2021/09/07 12:14:14;;;;;;;12.20;7.77;;;29.40;37.10;;;;;;5033648;28;20444;-75
2021/09/07 12:17:03;;;;;;;17.27;11.23;;;29.30;37.90;;;;;;5033042;28;20462;-76
2021/09/07 12:19:41;;;;;;;11.03;8.40;;;29.60;37.60;;;;;;5025699;28;20519;-77
2021/09/07 12:22:28;;;;;;;11.03;7.97;;;29.70;37.40;;;;;;5030293;28;20420;-77
2021/09/07 12:25:17;;;;;;;11.83;7.77;;;29.70;37.10;;;;;;5032228;28;20832;-76
2021/09/07 12:27:46;;;;;;;12.27;8.27;;;30.00;37.20;;;;;;5034187;28;20492;-77
2021/09/07 12:30:29;;;;;;;11.80;7.77;;;29.90;37.10;;;;;;5033624;28;20463;-77
2021/09/07 12:33:00;;;;;;;12.13;8.40;;;29.80;38.00;;;;;;5032219;28;20766;-75
2021/09/07 12:35:33;;;;;;;14.13;8.30;;;29.80;37.10;;;;;;5031510;28;20435;-76